Callao, Peru
Current Conditions -  °F | °C
As of 11:00 AM on Thursday 23 Oct 2014 (Local Time) from SPIM Reporting Station
Overcast Overcast  
Wind Chill: 66°   Ceiling: 1500
Heat Index: 66°   Visibility: 6mi
Dew Point: 59°   Wind: 6mph
Humidity: 78%   Direction: 260°W
Pressure: 29.97"   Gusts: NA
Location:  12.07°S, 77.15°W
Report Text: SPIM 231600Z 26005KT 220V290 9999 OVC015 19/15 Q1015 NOSIG RMK PP000
Loading
Personal Weather Stations






























Interactive Weather Map
Tropical Storm Tracking
New forecast layout! Learn more

10-Day Weather Forecast

Advertisements
Track Severe Weather on mobile